createdAt,value
2023-05-21T00:02:00.352Z,101434.69
2023-05-21T00:07:03.995Z,101427.59
2023-05-21T00:12:08.544Z,101420.09
2023-05-21T00:17:11.603Z,101435.69
2023-05-21T00:22:14.621Z,101429.19
2023-05-21T00:27:17.457Z,101434.59
2023-05-21T00:32:20.290Z,101435.00
2023-05-21T00:37:24.966Z,101437.84
2023-05-21T00:42:30.937Z,101435.94
2023-05-21T00:47:35.301Z,101425.34
2023-05-21T00:52:42.433Z,101429.88
2023-05-21T00:57:46.405Z,101439.59
2023-05-21T01:02:50.178Z,101443.09
2023-05-21T01:07:53.377Z,101439.06
2023-05-21T01:12:58.408Z,101441.28
2023-05-21T01:18:01.204Z,101452.44
2023-05-21T01:23:04.232Z,101446.56
2023-05-21T01:28:07.849Z,101451.41
2023-05-21T01:33:13.403Z,101456.28
2023-05-21T01:38:31.597Z,101466.44
2023-05-21T01:43:44.712Z,101465.41
2023-05-21T01:48:49.993Z,101465.03
2023-05-21T01:53:52.889Z,101459.22
2023-05-21T01:58:59.750Z,101469.94
2023-05-21T02:04:02.858Z,101462.75
2023-05-21T02:09:05.818Z,101471.59
2023-05-21T02:14:10.652Z,101468.59
2023-05-21T02:19:13.504Z,101465.31
2023-05-21T02:24:17.191Z,101461.06
2023-05-21T02:29:19.955Z,101445.31
2023-05-21T02:34:22.867Z,101450.00
2023-05-21T02:39:27.160Z,101448.84
2023-05-21T02:44:30.901Z,101455.75
2023-05-21T02:49:33.734Z,101450.78
2023-05-21T02:54:36.817Z,101459.09
2023-05-21T02:59:39.846Z,101464.53
2023-05-21T03:04:46.669Z,101465.81
2023-05-21T03:09:49.573Z,101464.97
2023-05-21T03:14:52.294Z,101471.59
2023-05-21T03:19:56.343Z,101471.34
2023-05-21T03:25:00.543Z,101468.34
2023-05-21T03:30:09.893Z,101470.38
2023-05-21T03:35:26.571Z,101467.22
2023-05-21T03:40:29.757Z,101462.84
2023-05-21T03:45:33.035Z,101464.72
2023-05-21T03:51:14.677Z,101465.16
2023-05-21T03:56:18.070Z,101476.31
2023-05-21T04:01:21.124Z,101481.31
2023-05-21T04:06:25.905Z,101491.56
2023-05-21T04:11:28.802Z,101494.97
2023-05-21T04:16:31.620Z,101505.41
2023-05-21T04:21:34.492Z,101490.53
2023-05-21T04:26:38.459Z,101497.31
2023-05-21T04:31:41.141Z,101511.75
2023-05-21T04:36:45.839Z,101516.88
2023-05-21T04:41:51.042Z,101515.22
2023-05-21T04:46:55.145Z,101508.75
2023-05-21T04:52:00.385Z,101506.03
2023-05-21T04:57:07.389Z,101517.66
2023-05-21T05:02:10.222Z,101512.03
2023-05-21T05:07:13.841Z,101513.56
2023-05-21T05:12:16.669Z,101513.50
2023-05-21T05:17:20.263Z,101528.50
2023-05-21T05:22:22.946Z,101522.72
2023-05-21T05:27:26.121Z,101527.56
2023-05-21T05:32:29.032Z,101516.19
2023-05-21T05:37:33.218Z,101533.09
2023-05-21T05:42:36.417Z,101519.09
2023-05-21T05:47:45.971Z,101531.41
2023-05-21T05:52:49.658Z,101528.88
2023-05-21T05:57:53.525Z,101531.31
2023-05-21T06:02:56.778Z,101525.25
2023-05-21T06:07:59.565Z,101539.44
2023-05-21T06:13:02.349Z,101537.09
2023-05-21T06:18:05.524Z,101525.63
2023-05-21T06:23:09.264Z,101541.75
2023-05-21T06:28:12.731Z,101546.81
2023-05-21T06:33:17.557Z,101545.16
2023-05-21T06:38:20.420Z,101537.09
2023-05-21T06:43:23.381Z,101534.00
2023-05-21T06:48:45.091Z,101553.88
2023-05-21T06:53:49.474Z,101556.94
2023-05-21T06:58:54.877Z,101550.34
2023-05-21T07:03:58.500Z,101555.97
2023-05-21T07:09:02.404Z,101552.69
2023-05-21T07:14:06.801Z,101551.16
2023-05-21T07:19:12.028Z,101548.44
2023-05-21T07:24:15.830Z,101548.41
2023-05-21T07:29:18.647Z,101562.72
2023-05-21T07:34:22.367Z,101550.91
2023-05-21T07:39:25.260Z,101553.81
2023-05-21T07:44:28.923Z,101545.84
2023-05-21T07:49:32.308Z,101547.69
2023-05-21T07:54:35.302Z,101533.41
2023-05-21T07:59:38.754Z,101526.53
2023-05-21T08:04:42.749Z,101542.66
2023-05-21T08:09:46.673Z,101543.94
2023-05-21T08:14:49.640Z,101537.88
2023-05-21T08:19:52.892Z,101529.56
2023-05-21T08:24:55.823Z,101530.22
2023-05-21T08:29:58.927Z,101529.41
2023-05-21T08:35:02.597Z,101531.84
2023-05-21T08:40:20.344Z,101538.31
2023-05-21T08:45:24.414Z,101521.75
2023-05-21T08:50:28.847Z,101508.59
2023-05-21T08:55:35.963Z,101505.06
2023-05-21T09:00:38.866Z,101517.63
2023-05-21T09:05:42.823Z,101505.44
2023-05-21T09:10:51.103Z,101504.69
2023-05-21T09:15:56.529Z,101487.06
2023-05-21T09:21:27.168Z,101492.13
2023-05-21T09:26:51.544Z,101505.53
2023-05-21T09:31:55.928Z,101493.94
2023-05-21T09:37:01.922Z,101480.88
2023-05-21T09:42:05.120Z,101483.31
2023-05-21T09:47:12.722Z,101475.19
2023-05-21T09:52:24.471Z,101482.63
2023-05-21T09:57:27.183Z,101460.84
2023-05-21T10:02:32.397Z,101464.41
2023-05-21T10:07:38.291Z,101464.03
2023-05-21T10:12:47.721Z,101466.94
2023-05-21T10:17:54.440Z,101464.91
2023-05-21T10:23:01.576Z,101461.66
2023-05-21T10:28:08.779Z,101453.78
2023-05-21T10:33:18.098Z,101458.13
2023-05-21T10:38:24.523Z,101451.47
2023-05-21T10:43:47.878Z,101452.00
2023-05-21T10:49:28.157Z,101439.75
2023-05-21T10:54:59.111Z,101450.25
2023-05-21T11:00:07.474Z,101435.00
2023-05-21T11:05:11.790Z,101450.66
2023-05-21T11:10:43.057Z,101441.94
2023-05-21T11:16:02.762Z,101439.06
2023-05-21T11:21:13.834Z,101435.78
2023-05-21T11:26:24.420Z,101418.28
2023-05-21T11:31:35.452Z,101424.47
2023-05-21T11:36:42.145Z,101432.41
2023-05-21T11:42:02.458Z,101436.84
2023-05-21T11:47:20.841Z,101419.44
2023-05-21T11:52:28.463Z,101421.91
2023-05-21T11:57:35.405Z,101421.31
2023-05-21T12:02:45.177Z,101408.31
2023-05-21T12:07:51.565Z,101412.84
2023-05-21T12:12:57.533Z,101404.66
2023-05-21T12:18:05.547Z,101412.91
2023-05-21T12:23:20.307Z,101398.84
2023-05-21T12:28:26.202Z,101398.53
2023-05-21T12:33:39.963Z,101402.06
2023-05-21T12:38:47.952Z,101392.88
2023-05-21T12:43:55.207Z,101400.59
2023-05-21T12:49:00.624Z,101401.91
2023-05-21T12:54:07.245Z,101396.44
2023-05-21T12:59:17.592Z,101395.47
2023-05-21T13:04:21.346Z,101391.38
2023-05-21T13:09:24.177Z,101381.56
2023-05-21T13:14:26.860Z,101370.31
2023-05-21T13:19:29.864Z,101357.94
2023-05-21T13:24:32.817Z,101347.91
2023-05-21T13:29:36.276Z,101360.75
2023-05-21T13:34:39.072Z,101368.69
2023-05-21T13:39:41.785Z,101375.00
2023-05-21T13:44:44.738Z,101364.78
2023-05-21T13:49:47.600Z,101361.69
2023-05-21T13:54:50.345Z,101356.66
2023-05-21T13:59:54.224Z,101354.13
2023-05-21T14:04:57.154Z,101341.47
2023-05-21T14:10:00.019Z,101348.03
2023-05-21T14:15:02.587Z,101354.59
2023-05-21T14:20:09.012Z,101363.53
2023-05-21T14:25:11.717Z,101355.00
2023-05-21T14:30:15.660Z,101343.38
2023-05-21T14:35:18.301Z,101347.09
2023-05-21T14:40:21.606Z,101353.06
2023-05-21T14:45:24.405Z,101351.28
2023-05-21T14:50:27.062Z,101352.34
2023-05-21T14:55:31.135Z,101350.94
2023-05-21T15:00:34.852Z,101341.06
2023-05-21T15:05:37.983Z,101342.59
2023-05-21T15:10:42.022Z,101337.84
2023-05-21T15:15:45.018Z,101348.69
2023-05-21T15:20:47.816Z,101350.13
2023-05-21T15:25:50.887Z,101344.22
2023-05-21T15:30:53.753Z,101342.47
2023-05-21T15:35:56.711Z,101342.34
2023-05-21T15:40:59.705Z,101344.94
2023-05-21T15:46:02.591Z,101341.31
2023-05-21T15:51:05.586Z,101339.84
2023-05-21T15:56:09.413Z,101344.63
2023-05-21T16:01:12.280Z,101329.66
2023-05-21T16:06:15.219Z,101341.94
2023-05-21T16:11:17.929Z,101327.88
2023-05-21T16:16:23.791Z,101332.19
2023-05-21T16:21:27.449Z,101335.06
2023-05-21T16:26:30.497Z,101337.75
2023-05-21T16:31:33.351Z,101329.97
2023-05-21T16:36:37.759Z,101337.19
2023-05-21T16:41:40.411Z,101333.19
2023-05-21T16:46:43.008Z,101327.88
2023-05-21T16:51:45.855Z,101333.97
2023-05-21T16:56:48.834Z,101330.56
2023-05-21T17:01:52.840Z,101345.44
2023-05-21T17:06:55.595Z,101340.97
2023-05-21T17:11:58.453Z,101341.84
2023-05-21T17:17:02.058Z,101339.75
2023-05-21T17:22:06.508Z,101339.47
2023-05-21T17:27:09.372Z,101342.22
2023-05-21T17:32:12.557Z,101354.56
2023-05-21T17:37:15.413Z,101348.72
2023-05-21T17:42:18.526Z,101349.94
2023-05-21T17:47:21.388Z,101356.94
2023-05-21T17:52:27.825Z,101355.19
2023-05-21T17:57:30.510Z,101357.78
2023-05-21T18:02:33.388Z,101356.72
2023-05-21T18:07:40.904Z,101360.88
2023-05-21T18:12:46.602Z,101357.44
2023-05-21T18:17:49.461Z,101354.13
2023-05-21T18:22:52.442Z,101323.00
2023-05-21T18:27:55.061Z,101348.56
2023-05-21T18:32:57.933Z,101333.94
2023-05-21T18:38:01.692Z,101342.09
2023-05-21T18:43:06.731Z,101345.28
2023-05-21T18:48:09.380Z,101345.59
2023-05-21T18:53:12.079Z,101336.03
2023-05-21T18:58:14.817Z,101335.72
2023-05-21T19:03:17.474Z,101339.84
2023-05-21T19:08:20.441Z,101333.34
2023-05-21T19:13:23.959Z,101331.94
2023-05-21T19:18:31.859Z,101326.50
2023-05-21T19:23:48.506Z,101325.53
2023-05-21T19:28:55.690Z,101331.34
2023-05-21T19:33:59.433Z,101336.97
2023-05-21T19:39:02.544Z,101328.66
2023-05-21T19:44:06.588Z,101328.31
2023-05-21T19:49:11.406Z,101326.78
2023-05-21T19:54:14.171Z,101323.56
2023-05-21T19:59:18.609Z,101305.69
2023-05-21T20:04:21.516Z,101317.88
2023-05-21T20:09:24.458Z,101315.63
2023-05-21T20:14:27.159Z,101313.00
2023-05-21T20:19:30.743Z,101313.34
2023-05-21T20:24:33.640Z,101315.56
2023-05-21T20:29:36.695Z,101314.38
2023-05-21T20:34:47.257Z,101300.53
2023-05-21T20:39:58.207Z,101297.91
2023-05-21T20:45:02.202Z,101302.13
2023-05-21T20:50:07.534Z,101298.22
2023-05-21T20:55:10.821Z,101299.88
2023-05-21T21:00:16.256Z,101302.25
2023-05-21T21:05:20.356Z,101300.16
2023-05-21T21:10:23.281Z,101299.59
2023-05-21T21:15:26.097Z,101297.31
2023-05-21T21:20:28.803Z,101284.44
2023-05-21T21:25:31.811Z,101284.44
2023-05-21T21:30:34.558Z,101289.63
2023-05-21T21:35:37.207Z,101273.88
2023-05-21T21:40:40.313Z,101275.78
2023-05-21T21:45:43.358Z,101279.06
2023-05-21T21:50:46.268Z,101278.50
2023-05-21T21:55:50.847Z,101276.38
2023-05-21T22:00:53.828Z,101277.44
2023-05-21T22:05:56.756Z,101287.56
2023-05-21T22:10:59.527Z,101294.38
2023-05-21T22:16:02.555Z,101285.00
2023-05-21T22:21:10.153Z,101281.91
2023-05-21T22:26:13.663Z,101282.75
2023-05-21T22:31:16.922Z,101278.81
2023-05-21T22:36:19.707Z,101278.22
2023-05-21T22:41:23.146Z,101282.97
2023-05-21T22:46:25.874Z,101272.94
2023-05-21T22:51:34.611Z,101270.34
2023-05-21T22:56:37.767Z,101269.09
2023-05-21T23:01:41.387Z,101276.50
2023-05-21T23:06:44.058Z,101271.88
2023-05-21T23:11:46.959Z,101269.94
2023-05-21T23:16:49.808Z,101292.56
2023-05-21T23:21:53.046Z,101295.59
2023-05-21T23:27:02.117Z,101300.28
2023-05-21T23:32:05.652Z,101298.28
2023-05-21T23:37:08.414Z,101301.22
2023-05-21T23:42:11.183Z,101303.78
2023-05-21T23:47:13.931Z,101300.06
2023-05-21T23:52:18.550Z,101298.69
2023-05-21T23:57:21.365Z,101296.50
